Time;durP1;ratioP1;P1;durP2;ratioP2;P2;SDS_P1;SDS_P2;PMS_P1;PMS_P2;Temp;Humidity;BMP_temperature;BMP_pressure;BME280_temperature;BME280_humidity;BME280_pressure;Samples;Min_cycle;Max_cycle;Signal;HPM_P1;HPM_P2
2022/04/29 00:00:09;;;;;;;12.57;8.17;;;9.70;1.00;;;;;;5066392;28;20187;-57
2022/04/29 00:02:39;;;;;;;17.90;8.20;;;9.70;1.00;;;;;;5060686;28;20198;-57
2022/04/29 00:05:10;;;;;;;12.53;8.40;;;9.70;1.00;;;;;;5065186;28;20227;-57
2022/04/29 00:07:39;;;;;;;16.23;8.80;;;9.70;1.00;;;;;;5062706;28;20235;-57
2022/04/29 00:10:13;;;;;;;14.30;7.50;;;9.70;1.00;;;;;;5042996;28;20203;-56
2022/04/29 00:12:50;;;;;;;12.83;7.47;;;9.60;1.00;;;;;;5064581;28;20213;-57
2022/04/29 00:15:18;;;;;;;13.27;7.30;;;9.60;1.00;;;;;;5046882;28;20217;-57
2022/04/29 00:17:46;;;;;;;18.00;8.97;;;9.60;1.00;;;;;;5059930;28;20186;-57
2022/04/29 00:20:14;;;;;;;14.37;8.67;;;9.50;1.00;;;;;;5064529;28;20199;-57
2022/04/29 00:22:41;;;;;;;25.60;10.00;;;9.50;1.00;;;;;;5063319;28;20260;-57
2022/04/29 00:25:12;;;;;;;19.33;9.33;;;9.50;1.00;;;;;;5037727;28;20703;-57
2022/04/29 00:27:40;;;;;;;19.37;9.50;;;9.50;1.00;;;;;;5059994;28;20218;-57
2022/04/29 00:30:11;;;;;;;19.13;9.63;;;9.40;1.00;;;;;;5060574;28;20666;-57
2022/04/29 00:32:41;;;;;;;12.07;8.67;;;9.30;1.00;;;;;;5045896;28;20218;-57
2022/04/29 00:35:09;;;;;;;16.03;9.10;;;9.30;1.00;;;;;;5041044;28;20204;-57
2022/04/29 00:37:51;;;;;;;11.37;7.40;;;9.30;1.00;;;;;;5042910;28;20184;-57
2022/04/29 00:40:24;;;;;;;16.97;9.90;;;9.30;1.00;;;;;;5043078;28;20262;-57
2022/04/29 00:42:52;;;;;;;13.93;8.53;;;9.20;1.00;;;;;;5039485;28;20349;-57
2022/04/29 00:45:21;;;;;;;17.70;8.43;;;9.20;1.00;;;;;;5046440;28;20593;-57
2022/04/29 00:47:49;;;;;;;15.17;8.40;;;9.20;1.00;;;;;;5040961;28;20241;-57
2022/04/29 00:50:18;;;;;;;16.53;7.70;;;9.10;1.00;;;;;;5044421;28;20188;-57
2022/04/29 00:52:49;;;;;;;16.57;8.80;;;9.10;1.00;;;;;;5041850;28;20202;-57
2022/04/29 00:55:17;;;;;;;12.80;7.70;;;9.00;1.00;;;;;;5042716;28;20265;-57
2022/04/29 00:58:07;;;;;;;14.60;7.37;;;8.90;1.00;;;;;;5058463;28;20192;-57
2022/04/29 01:00:38;;;;;;;15.27;7.40;;;8.90;1.00;;;;;;5056109;28;20184;-57
2022/04/29 01:03:10;;;;;;;15.57;7.57;;;8.90;1.00;;;;;;5039614;28;20200;-57
2022/04/29 01:05:39;;;;;;;9.40;6.80;;;8.80;1.00;;;;;;5043944;28;20180;-58
2022/04/29 01:08:11;;;;;;;11.03;6.43;;;8.80;1.00;;;;;;5053630;28;20304;-58
2022/04/29 01:10:38;;;;;;;12.33;7.17;;;8.80;1.00;;;;;;5042386;28;20303;-58
2022/04/29 01:13:05;;;;;;;12.33;6.73;;;8.80;1.00;;;;;;5038139;28;20326;-57
2022/04/29 01:15:33;;;;;;;13.00;6.50;;;8.70;1.00;;;;;;5038516;28;20215;-57
2022/04/29 01:18:03;;;;;;;8.87;6.77;;;8.80;1.00;;;;;;5040507;28;20195;-58
2022/04/29 01:20:31;;;;;;;15.23;8.43;;;8.70;1.00;;;;;;5039938;28;20230;-58
2022/04/29 01:23:03;;;;;;;13.63;7.60;;;8.70;1.00;;;;;;5038683;28;20192;-57
2022/04/29 01:25:30;;;;;;;13.43;7.60;;;8.60;1.00;;;;;;5029936;28;20659;-57
2022/04/29 01:27:57;;;;;;;14.50;7.33;;;8.60;1.00;;;;;;5054254;28;20643;-58
2022/04/29 01:30:25;;;;;;;11.17;7.20;;;8.60;1.00;;;;;;5037039;28;20200;-57
2022/04/29 01:32:56;;;;;;;22.70;13.20;;;8.60;1.00;;;;;;5042163;28;20234;-58
2022/04/29 01:35:23;;;;;;;13.10;7.77;;;8.60;1.00;;;;;;5026085;28;20223;-58
2022/04/29 01:37:51;;;;;;;23.13;8.40;;;8.50;1.00;;;;;;5058952;28;20183;-58
2022/04/29 01:40:21;;;;;;;23.87;10.57;;;8.40;1.00;;;;;;5061895;28;20191;-58
2022/04/29 01:42:49;;;;;;;20.07;9.70;;;8.40;1.00;;;;;;5043590;28;20199;-58
2022/04/29 01:45:16;;;;;;;18.97;10.77;;;8.30;1.00;;;;;;5043014;28;20230;-58
2022/04/29 01:47:55;;;;;;;18.90;9.80;;;8.30;1.00;;;;;;5043225;28;20206;-58
2022/04/29 01:50:40;;;;;;;19.13;9.07;;;8.30;1.00;;;;;;5064579;28;20215;-58
2022/04/29 01:53:07;;;;;;;13.07;8.27;;;8.30;1.00;;;;;;5027554;28;20236;-57
2022/04/29 01:55:34;;;;;;;13.87;8.10;;;8.30;1.00;;;;;;5057844;28;20214;-57
2022/04/29 01:58:06;;;;;;;17.17;8.00;;;8.20;1.00;;;;;;5042053;28;20256;-56
2022/04/29 02:00:33;;;;;;;14.63;7.40;;;8.10;1.00;;;;;;5063722;28;20290;-57
2022/04/29 02:03:00;;;;;;;16.97;7.63;;;8.10;1.00;;;;;;5062832;28;20217;-57
2022/04/29 02:05:29;;;;;;;23.83;10.40;;;8.10;1.00;;;;;;5044630;28;20253;-57
2022/04/29 02:07:57;;;;;;;12.50;8.50;;;8.00;1.00;;;;;;5055134;28;20199;-58
2022/04/29 02:10:24;;;;;;;19.03;8.57;;;8.00;1.00;;;;;;5049476;28;20187;-58
2022/04/29 02:12:55;;;;;;;15.53;8.70;;;8.00;1.00;;;;;;5064592;28;20205;-58
2022/04/29 02:15:23;;;;;;;13.60;8.00;;;8.00;1.00;;;;;;5065238;28;21722;-57
2022/04/29 02:17:52;;;;;;;14.63;7.90;;;8.00;1.00;;;;;;5062201;28;20190;-57
2022/04/29 02:20:24;;;;;;;14.63;8.07;;;7.90;1.00;;;;;;5062449;28;20195;-57
2022/04/29 02:22:55;;;;;;;15.33;8.63;;;7.90;1.00;;;;;;5046740;28;20195;-57
2022/04/29 02:25:23;;;;;;;16.27;8.63;;;7.80;1.00;;;;;;5049531;28;20708;-56
2022/04/29 02:27:53;;;;;;;16.77;9.20;;;7.70;1.00;;;;;;5063893;28;20283;-56
2022/04/29 02:30:20;;;;;;;16.43;9.27;;;7.70;1.00;;;;;;5050726;28;20202;-56
2022/04/29 02:32:47;;;;;;;17.03;9.37;;;7.70;1.00;;;;;;5062600;28;20187;-56
2022/04/29 02:35:15;;;;;;;20.40;10.67;;;7.60;15.00;;;;;;5048629;28;20755;-56
2022/04/29 02:37:43;;;;;;;12.47;9.00;;;7.50;28.10;;;;;;5064301;28;20226;-57
2022/04/29 02:40:10;;;;;;;20.73;9.30;;;7.50;41.50;;;;;;5059206;28;20273;-57
2022/04/29 02:42:38;;;;;;;17.40;8.33;;;7.50;50.40;;;;;;5047669;28;20179;-57
2022/04/29 02:45:06;;;;;;;21.07;9.70;;;7.50;62.00;;;;;;5047677;28;20195;-57
2022/04/29 02:47:45;;;;;;;15.40;8.23;;;7.40;77.90;;;;;;5048875;28;20199;-57
2022/04/29 02:50:15;;;;;;;15.27;9.07;;;7.40;80.00;;;;;;5068386;28;20480;-57
2022/04/29 02:52:55;;;;;;;17.97;9.43;;;7.40;79.70;;;;;;5040358;28;20194;-58
2022/04/29 02:55:22;;;;;;;16.23;8.80;;;7.40;81.20;;;;;;5060592;28;20211;-57
2022/04/29 02:58:09;;;;;;;15.50;8.50;;;7.40;82.10;;;;;;5047443;28;20206;-57
2022/04/29 03:00:36;;;;;;;12.40;8.20;;;7.30;86.30;;;;;;5030791;28;20238;-57
2022/04/29 03:03:03;;;;;;;18.57;8.07;;;7.30;94.30;;;;;;5046832;28;20199;-57
2022/04/29 03:05:31;;;;;;;13.40;8.33;;;7.30;99.90;;;;;;5060617;28;20188;-57
2022/04/29 03:07:58;;;;;;;22.33;9.90;;;7.20;99.90;;;;;;5046745;28;20692;-57
2022/04/29 03:10:25;;;;;;;18.93;9.10;;;7.20;99.90;;;;;;5046972;28;20240;-57
2022/04/29 03:12:53;;;;;;;17.33;8.37;;;7.20;99.90;;;;;;5043834;28;20207;-57
2022/04/29 03:15:35;;;;;;;13.70;8.93;;;7.20;99.90;;;;;;5049668;28;20700;-57
2022/04/29 03:20:50;;;;;;;12.77;8.83;;;7.10;99.90;;;;;;5067218;28;20191;-57
2022/04/29 03:23:18;;;;;;;12.50;7.53;;;7.10;99.90;;;;;;5063837;28;20306;-56
2022/04/29 03:25:49;;;;;;;15.17;8.73;;;7.10;99.90;;;;;;5066359;28;20206;-56
2022/04/29 03:28:16;;;;;;;15.30;8.57;;;7.10;99.90;;;;;;5046875;28;20245;-57
2022/04/29 03:30:43;;;;;;;16.23;8.53;;;7.00;99.90;;;;;;5066968;28;20782;-57
2022/04/29 03:33:13;;;;;;;20.30;8.73;;;7.00;99.90;;;;;;5050315;28;20682;-56
2022/04/29 03:35:42;;;;;;;16.97;9.33;;;7.00;99.90;;;;;;5047328;28;20203;-57
2022/04/29 03:38:21;;;;;;;18.87;8.47;;;7.00;99.90;;;;;;5047070;28;20698;-57
2022/04/29 03:40:50;;;;;;;15.10;9.37;;;6.90;99.90;;;;;;5043049;28;20191;-56
2022/04/29 03:43:19;;;;;;;16.23;8.93;;;7.00;99.90;;;;;;5045729;28;20195;-56
2022/04/29 03:45:47;;;;;;;15.33;8.30;;;7.00;99.90;;;;;;5064486;28;20684;-57
2022/04/29 03:48:22;;;;;;;15.97;8.50;;;7.00;99.90;;;;;;5063119;28;20670;-56
2022/04/29 03:50:58;;;;;;;15.23;8.80;;;7.00;99.90;;;;;;5063685;28;20197;-57
2022/04/29 03:53:25;;;;;;;17.47;9.37;;;7.00;99.90;;;;;;5061283;28;20206;-56
2022/04/29 03:55:59;;;;;;;17.30;9.47;;;7.10;99.90;;;;;;5061851;28;20234;-57
2022/04/29 03:58:26;;;;;;;15.00;9.30;;;7.00;99.90;;;;;;5061410;28;20203;-56
2022/04/29 04:00:54;;;;;;;17.93;9.23;;;7.10;99.90;;;;;;5043591;28;20257;-56
2022/04/29 04:03:47;;;;;;;22.07;9.40;;;7.10;99.90;;;;;;5057538;28;20280;-56
2022/04/29 04:09:04;;;;;;;21.93;11.23;;;7.10;99.90;;;;;;5033451;28;20211;-57
2022/04/29 04:11:32;;;;;;;17.13;9.77;;;7.00;99.90;;;;;;5046594;28;20217;-56
2022/04/29 04:13:59;;;;;;;16.93;10.10;;;7.00;99.90;;;;;;5060412;28;20187;-56
2022/04/29 04:16:32;;;;;;;19.37;10.17;;;7.00;99.90;;;;;;5032640;28;20207;-57
2022/04/29 04:19:03;;;;;;;11.97;9.73;;;7.00;99.90;;;;;;5061778;28;20196;-56
2022/04/29 04:21:30;;;;;;;19.73;10.07;;;7.00;99.90;;;;;;5043427;28;20236;-56
2022/04/29 04:24:02;;;;;;;15.97;9.87;;;7.10;99.90;;;;;;5059191;28;20191;-57
2022/04/29 04:26:32;;;;;;;18.07;9.93;;;7.10;99.90;;;;;;5056887;28;21191;-56
2022/04/29 04:29:02;;;;;;;23.27;10.43;;;7.10;99.90;;;;;;5041730;28;20642;-56
2022/04/29 04:31:37;;;;;;;20.20;11.07;;;7.20;99.90;;;;;;5057444;28;20590;-55
2022/04/29 04:34:49;;;;;;;18.67;10.60;;;7.30;99.90;;;;;;5037946;28;20305;-57
2022/04/29 04:36:54;;;;;;;14.40;10.33;;;7.40;94.80;;;;;;5053571;28;20245;-56
2022/04/29 04:39:23;;;;;;;17.03;10.03;;;7.60;28.70;;;;;;5056632;28;20694;-56
2022/04/29 04:41:55;;;;;;;16.20;10.27;;;7.70;1.00;;;;;;5048087;28;20286;-57
2022/04/29 04:44:54;;;;;;;17.60;9.57;;;7.70;1.00;;;;;;5037085;28;20196;-57
2022/04/29 04:47:23;;;;;;;19.40;10.27;;;7.70;1.00;;;;;;5044686;28;20199;-57
2022/04/29 04:50:21;;;;;;;16.03;10.13;;;7.80;1.00;;;;;;5044141;28;20205;-56
2022/04/29 04:52:48;;;;;;;17.50;10.70;;;7.90;1.00;;;;;;5046916;28;20200;-56
2022/04/29 04:55:15;;;;;;;18.10;9.87;;;8.00;1.00;;;;;;5047478;28;20239;-56
2022/04/29 04:57:43;;;;;;;18.27;11.80;;;8.00;1.00;;;;;;5037660;28;20188;-56
2022/04/29 05:00:13;;;;;;;20.17;10.13;;;8.10;1.00;;;;;;5042514;28;20578;-56
2022/04/29 05:03:05;;;;;;;16.30;10.53;;;8.20;1.00;;;;;;5036708;28;20208;-56
2022/04/29 05:06:09;;;;;;;19.10;11.67;;;8.20;1.00;;;;;;5006388;28;20213;-56
2022/04/29 05:08:36;;;;;;;14.97;11.03;;;8.20;1.00;;;;;;5028916;28;20211;-56
2022/04/29 05:11:03;;;;;;;18.50;10.70;;;8.00;1.00;;;;;;5037270;28;20556;-56
2022/04/29 05:13:30;;;;;;;22.43;10.97;;;8.10;1.00;;;;;;5056485;28;20203;-57
2022/04/29 05:15:57;;;;;;;19.20;10.20;;;8.20;1.00;;;;;;5063362;28;20708;-57
2022/04/29 05:18:39;;;;;;;19.80;9.87;;;8.20;1.00;;;;;;5027985;28;20199;-57
2022/04/29 05:21:13;;;;;;;19.67;11.73;;;8.40;1.00;;;;;;5042998;28;21760;-57
2022/04/29 05:23:40;;;;;;;20.17;10.23;;;8.80;1.00;;;;;;5038614;28;20188;-57
2022/04/29 05:26:30;;;;;;;14.17;9.63;;;9.20;1.00;;;;;;5045069;28;20203;-57
2022/04/29 05:29:17;;;;;;;20.47;9.93;;;9.90;1.00;;;;;;5046441;28;20203;-57
2022/04/29 05:32:03;;;;;;;17.93;9.93;;;11.10;1.00;;;;;;5058851;28;20241;-55
2022/04/29 05:34:58;;;;;;;12.27;8.20;;;12.30;1.00;;;;;;5062591;28;20211;-55
2022/04/29 05:37:55;;;;;;;14.60;8.43;;;13.20;1.00;;;;;;5063542;28;20285;-55
2022/04/29 05:43:10;;;;;;;14.03;9.43;;;15.90;99.90;;;;;;5036722;28;20256;-55
2022/04/29 05:45:37;;;;;;;14.02;8.13;;;17.20;99.90;;;;;;5066696;28;20288;-55
2022/04/29 05:48:05;;;;;;;11.67;7.83;;;17.50;99.90;;;;;;5049928;28;20297;-56
2022/04/29 05:50:35;;;;;;;16.50;8.53;;;16.60;99.90;;;;;;5049614;28;20344;-56
2022/04/29 05:53:04;;;;;;;15.23;8.47;;;15.60;99.90;;;;;;5047324;28;20270;-57
2022/04/29 05:55:31;;;;;;;15.97;9.33;;;14.70;99.90;;;;;;5049425;28;20721;-57
2022/04/29 05:58:16;;;;;;;13.07;8.83;;;13.20;99.90;;;;;;5049788;28;20281;-57
2022/04/29 06:00:52;;;;;;;16.60;9.63;;;12.70;99.90;;;;;;5065693;28;20627;-57
2022/04/29 06:03:20;;;;;;;14.67;9.17;;;11.90;99.90;;;;;;5064095;28;20195;-57
2022/04/29 06:05:47;;;;;;;15.97;9.67;;;11.50;99.90;;;;;;5065834;28;20241;-57
2022/04/29 06:08:14;;;;;;;17.57;9.80;;;11.20;1.00;;;;;;5036054;28;20207;-57
2022/04/29 06:10:41;;;;;;;18.67;9.90;;;11.00;1.00;;;;;;5047679;28;20836;-57
2022/04/29 06:13:09;;;;;;;12.90;9.67;;;10.70;1.00;;;;;;5065555;28;20204;-56
2022/04/29 06:15:59;;;;;;;14.00;9.50;;;10.80;1.00;;;;;;5063040;28;20219;-57
2022/04/29 06:18:26;;;;;;;16.77;9.07;;;11.20;1.00;;;;;;5059519;28;20641;-57
2022/04/29 06:21:25;;;;;;;19.10;10.40;;;11.70;1.00;;;;;;5016654;28;20539;-57
2022/04/29 06:24:12;;;;;;;17.37;9.60;;;12.60;1.00;;;;;;5061692;28;20199;-56
2022/04/29 06:26:42;;;;;;;17.30;9.43;;;13.20;99.90;;;;;;5045483;28;20599;-57
2022/04/29 06:29:09;;;;;;;18.30;9.40;;;13.50;99.90;;;;;;5044055;28;20833;-57
2022/04/29 06:31:36;;;;;;;18.93;9.10;;;14.80;99.90;;;;;;5042201;28;20321;-57
2022/04/29 06:34:22;;;;;;;16.97;9.27;;;15.80;99.90;;;;;;5061982;28;20328;-55
2022/04/29 06:36:49;;;;;;;14.47;9.43;;;16.50;99.90;;;;;;5045633;28;20203;-56
2022/04/29 06:39:17;;;;;;;17.73;9.00;;;16.20;99.90;;;;;;5060336;28;20301;-55
2022/04/29 06:42:13;;;;;;;18.10;9.07;;;16.80;99.90;;;;;;5063631;28;20203;-55
2022/04/29 06:45:14;;;;;;;9.75;7.47;;;17.40;99.90;;;;;;5061600;28;20202;-55
2022/04/29 06:48:01;;;;;;;9.73;7.35;;;18.90;99.90;;;;;;5047312;28;20203;-55
2022/04/29 06:50:47;;;;;;;10.93;8.40;;;19.50;99.90;;;;;;5059778;28;20210;-55
2022/04/29 06:53:33;;;;;;;14.35;8.52;;;18.80;99.90;;;;;;5060468;28;20267;-57
2022/04/29 06:56:01;;;;;;;13.23;8.18;;;18.10;99.90;;;;;;5049181;28;20252;-55
2022/04/29 06:58:28;;;;;;;16.95;8.95;;;17.70;99.90;;;;;;5047474;28;20681;-55
2022/04/29 07:00:56;;;;;;;15.43;7.90;;;19.00;99.90;;;;;;5043031;28;20199;-55
2022/04/29 07:03:24;;;;;;;15.38;8.13;;;19.40;99.90;;;;;;5042036;28;20210;-55
2022/04/29 07:05:56;;;;;;;15.45;7.55;;;20.40;99.90;;;;;;5066050;28;20282;-55
2022/04/29 07:08:23;;;;;;;13.95;7.50;;;20.40;99.90;;;;;;5045225;28;20195;-55
2022/04/29 07:11:20;;;;;;;15.70;7.05;;;20.30;99.90;;;;;;4977329;28;20210;-55
2022/04/29 07:14:02;;;;;;;16.63;7.40;;;20.40;99.90;;;;;;5034062;28;20206;-56
2022/04/29 07:16:38;;;;;;;11.82;7.32;;;19.60;99.90;;;;;;5047417;28;20211;-56
2022/04/29 07:19:15;;;;;;;10.23;6.82;;;19.90;99.90;;;;;;5064848;28;20214;-56
2022/04/29 07:21:42;;;;;;;12.93;7.47;;;19.70;99.90;;;;;;5045263;28;20861;-56
2022/04/29 07:24:09;;;;;;;11.35;7.35;;;19.20;99.90;;;;;;5059949;28;20187;-57
2022/04/29 07:26:39;;;;;;;12.57;7.88;;;18.60;99.90;;;;;;5049512;28;20198;-56
2022/04/29 07:29:07;;;;;;;18.50;7.75;;;17.70;99.90;;;;;;5047694;28;20198;-56
2022/04/29 07:31:40;;;;;;;16.02;7.20;;;17.10;99.90;;;;;;5045914;28;20219;-56
2022/04/29 07:34:12;;;;;;;13.70;7.55;;;17.80;99.90;;;;;;5066127;28;20206;-56
2022/04/29 07:42:32;;;;;;;13.68;8.55;;;17.30;99.90;;;;;;5063797;28;20198;-57
2022/04/29 07:45:02;;;;;;;15.80;8.23;;;16.70;99.90;;;;;;5063670;28;20351;-56
2022/04/29 07:48:05;;;;;;;15.17;8.57;;;15.60;99.90;;;;;;5064769;28;20210;-57
2022/04/29 07:50:36;;;;;;;13.77;8.20;;;14.90;99.90;;;;;;5047846;28;20198;-57
2022/04/29 07:53:04;;;;;;;17.77;8.33;;;14.70;99.90;;;;;;5032332;28;20293;-56
2022/04/29 07:55:31;;;;;;;13.73;8.43;;;14.80;99.90;;;;;;5065705;28;20191;-56
2022/04/29 07:57:58;;;;;;;12.50;7.40;;;15.40;99.90;;;;;;5047861;28;20211;-56
2022/04/29 08:00:25;;;;;;;13.25;7.50;;;17.40;99.90;;;;;;5045614;28;20710;-56
2022/04/29 08:02:55;;;;;;;11.88;6.80;;;19.50;99.90;;;;;;5064018;28;20179;-57
2022/04/29 08:05:43;;;;;;;11.32;6.10;;;21.40;99.90;;;;;;5069032;28;20646;-57
2022/04/29 08:08:11;;;;;;;11.30;6.38;;;25.00;99.90;;;;;;5045837;28;20203;-57
2022/04/29 08:10:38;;;;;;;10.98;6.03;;;26.10;99.90;;;;;;5044179;28;20194;-57
2022/04/29 08:13:05;;;;;;;9.52;5.97;;;26.90;99.90;;;;;;5047977;28;20182;-57
2022/04/29 08:15:55;;;;;;;9.30;6.00;;;28.30;99.90;;;;;;5056500;28;21428;-57
2022/04/29 08:18:52;;;;;;;10.30;6.65;;;30.40;99.90;;;;;;5049383;28;20199;-57
2022/04/29 08:21:34;;;;;;;12.73;6.45;;;30.80;99.90;;;;;;5050987;28;20701;-57
2022/04/29 08:24:02;;;;;;;13.90;6.40;;;29.70;99.90;;;;;;5052875;28;20194;-57
2022/04/29 08:26:29;;;;;;;11.18;5.97;;;29.90;99.90;;;;;;5070616;28;20198;-57
2022/04/29 08:28:56;;;;;;;10.13;6.03;;;30.80;99.90;;;;;;5068812;28;20199;-56
2022/04/29 08:31:23;;;;;;;10.07;5.68;;;33.10;99.90;;;;;;5040783;28;20713;-56
2022/04/29 08:33:55;;;;;;;11.82;6.03;;;33.60;99.90;;;;;;5044165;28;20210;-57
2022/04/29 08:36:24;;;;;;;11.73;6.32;;;33.10;99.90;;;;;;5063510;28;20225;-57
2022/04/29 08:38:51;;;;;;;12.77;6.57;;;32.30;99.90;;;;;;5050299;28;20214;-57
2022/04/29 08:41:21;;;;;;;10.18;6.18;;;29.20;99.90;;;;;;5068291;28;20245;-56
2022/04/29 08:43:49;;;;;;;14.98;5.38;;;30.80;99.90;;;;;;5046483;28;20522;-56
2022/04/29 08:46:35;;;;;;;7.82;5.20;;;31.90;99.90;;;;;;5056051;28;20249;-57
2022/04/29 08:49:17;;;;;;;9.93;5.55;;;31.10;99.90;;;;;;5067495;28;20660;-57
2022/04/29 08:51:45;;;;;;;10.70;6.03;;;33.30;99.90;;;;;;5063459;28;20187;-57
2022/04/29 08:58:36;;;;;;;12.45;5.63;;;31.40;99.90;;;;;;5065161;28;20195;-57
2022/04/29 08:59:48;;;;;;;11.30;5.32;;;33.50;99.90;;;;;;5065677;28;20195;-57
2022/04/29 09:02:14;;;;;;;12.50;5.25;;;33.30;99.90;;;;;;5068743;28;20178;-57
2022/04/29 09:04:42;;;;;;;13.73;6.60;;;34.60;99.90;;;;;;5063628;28;20273;-57
2022/04/29 09:07:09;;;;;;;14.25;12.52;;;31.90;99.90;;;;;;5051918;28;20191;-57
2022/04/29 09:09:36;;;;;;;10.98;5.68;;;32.00;99.90;;;;;;5059634;28;20244;-56
2022/04/29 09:15:15;;;;;;;9.35;5.50;;;33.10;99.90;;;;;;5061093;28;20286;-57
2022/04/29 09:17:47;;;;;;;7.68;5.53;;;30.10;99.90;;;;;;5061356;28;20213;-57
2022/04/29 09:20:16;;;;;;;9.63;5.88;;;29.50;99.90;;;;;;5059104;28;20252;-57
2022/04/29 09:22:49;;;;;;;10.10;6.45;;;27.30;99.90;;;;;;5063982;28;20187;-56
2022/04/29 09:25:36;;;;;;;10.68;6.57;;;25.00;99.90;;;;;;5060407;28;20226;-57
2022/04/29 09:28:24;;;;;;;13.30;5.80;;;23.90;99.90;;;;;;5062988;28;20594;-56
2022/04/29 09:31:11;;;;;;;11.43;6.30;;;24.30;99.90;;;;;;5065724;28;20959;-56
2022/04/29 09:34:53;;;;;;;9.68;6.78;;;23.10;99.90;;;;;;5059677;28;20202;-56
2022/04/29 09:40:39;;;;;;;12.93;6.95;;;20.10;99.90;;;;;;5057459;28;20191;-57
2022/04/29 09:43:06;;;;;;;12.27;6.70;;;20.10;99.90;;;;;;5056555;28;20276;-57
2022/04/29 09:45:33;;;;;;;12.13;6.60;;;20.50;99.90;;;;;;5066987;28;20260;-58
2022/04/29 09:48:00;;;;;;;16.25;7.15;;;20.90;99.90;;;;;;5050347;28;20230;-57
2022/04/29 09:50:50;;;;;;;10.95;6.18;;;21.10;99.90;;;;;;5068226;28;20285;-57
2022/04/29 09:53:21;;;;;;;13.35;6.93;;;21.50;99.90;;;;;;5062637;28;20183;-57
2022/04/29 09:56:14;;;;;;;12.32;6.90;;;20.80;99.90;;;;;;5066050;28;20244;-56
2022/04/29 09:58:41;;;;;;;14.50;8.23;;;20.60;99.90;;;;;;5063763;28;20288;-57
2022/04/29 10:01:09;;;;;;;15.40;8.35;;;20.30;99.90;;;;;;5052866;28;20237;-57
2022/04/29 10:03:38;;;;;;;16.48;8.40;;;19.80;99.90;;;;;;5052920;28;20244;-57
2022/04/29 10:06:10;;;;;;;15.63;9.05;;;19.90;99.90;;;;;;5043260;28;20674;-56
2022/04/29 10:08:37;;;;;;;18.73;9.68;;;20.00;99.90;;;;;;5067935;28;20201;-57
2022/04/29 10:11:05;;;;;;;15.38;9.57;;;19.00;99.90;;;;;;5066118;28;20199;-57
2022/04/29 10:13:34;;;;;;;17.05;8.50;;;18.90;99.90;;;;;;5066520;28;20221;-57
2022/04/29 10:16:19;;;;;;;13.32;8.05;;;19.20;99.90;;;;;;5063576;28;20252;-57
2022/04/29 10:22:09;;;;;;;17.17;8.13;;;19.80;99.90;;;;;;5048208;28;20291;-57
2022/04/29 10:24:42;;;;;;;13.82;7.18;;;19.90;99.90;;;;;;5062900;28;20471;-57
2022/04/29 10:27:11;;;;;;;14.45;6.82;;;20.00;99.90;;;;;;5063409;28;20187;-57
2022/04/29 10:29:39;;;;;;;13.65;6.93;;;19.90;99.90;;;;;;5047328;28;20673;-57
2022/04/29 10:32:10;;;;;;;11.98;6.72;;;20.00;99.90;;;;;;5066055;28;20303;-57
2022/04/29 10:34:37;;;;;;;12.23;8.85;;;19.90;99.90;;;;;;5066293;28;20800;-57
2022/04/29 10:37:13;;;;;;;11.77;7.10;;;20.70;99.90;;;;;;5042276;28;20239;-58
2022/04/29 10:39:42;;;;;;;10.05;6.28;;;20.90;99.90;;;;;;5060498;28;20210;-57
2022/04/29 10:42:09;;;;;;;9.48;5.70;;;21.50;99.90;;;;;;5068250;28;20252;-57
2022/04/29 10:44:59;;;;;;;9.20;6.00;;;21.20;99.90;;;;;;5045708;28;20304;-58
2022/04/29 10:47:38;;;;;;;12.82;6.20;;;21.40;99.90;;;;;;5070776;28;20206;-57
2022/04/29 10:50:30;;;;;;;11.32;6.93;;;21.40;99.90;;;;;;5045727;28;20704;-57
2022/04/29 10:53:15;;;;;;;11.63;7.13;;;20.50;99.90;;;;;;5058577;28;20198;-57
2022/04/29 10:55:48;;;;;;;14.20;7.45;;;20.20;99.90;;;;;;5050597;28;20253;-57
2022/04/29 10:58:23;;;;;;;15.35;7.07;;;19.30;99.90;;;;;;5065415;28;20224;-60
2022/04/29 11:01:14;;;;;;;10.75;7.55;;;19.70;99.90;;;;;;5047517;28;20186;-57
2022/04/29 11:03:45;;;;;;;12.85;7.28;;;19.20;99.90;;;;;;5062722;28;20246;-58
2022/04/29 11:06:14;;;;;;;10.77;7.20;;;18.40;99.90;;;;;;5047393;28;20204;-58
2022/04/29 11:08:43;;;;;;;16.55;7.32;;;18.70;99.90;;;;;;5040857;28;20203;-56
2022/04/29 11:11:13;;;;;;;11.68;6.80;;;19.20;99.90;;;;;;5062626;28;20280;-56
2022/04/29 11:14:00;;;;;;;14.23;7.75;;;19.00;99.90;;;;;;5039125;28;20681;-57
2022/04/29 11:17:06;;;;;;;13.75;7.38;;;18.80;99.90;;;;;;5059983;28;20244;-57
2022/04/29 11:19:47;;;;;;;10.18;7.05;;;18.80;99.90;;;;;;5058783;28;20643;-57
2022/04/29 11:25:08;;;;;;;11.68;7.72;;;18.70;99.90;;;;;;5066257;28;20190;-57
2022/04/29 11:27:53;;;;;;;14.05;7.40;;;19.80;99.90;;;;;;5037151;28;20450;-57
2022/04/29 11:30:43;;;;;;;12.82;7.70;;;21.10;99.90;;;;;;5066226;28;20309;-57
2022/04/29 11:33:14;;;;;;;14.05;8.25;;;21.40;99.90;;;;;;5061507;28;20196;-58
2022/04/29 11:35:43;;;;;;;13.82;7.55;;;21.00;99.90;;;;;;5063963;28;20262;-58
2022/04/29 11:38:10;;;;;;;13.43;7.97;;;21.00;99.90;;;;;;5066166;28;20250;-57
2022/04/29 11:40:39;;;;;;;16.20;8.68;;;20.20;99.90;;;;;;5047807;28;20194;-57
2022/04/29 11:43:10;;;;;;;13.80;7.95;;;19.10;99.90;;;;;;5066725;28;20187;-58
2022/04/29 11:45:41;;;;;;;15.27;8.63;;;18.40;99.90;;;;;;5056427;28;20278;-57
2022/04/29 11:48:09;;;;;;;13.27;9.35;;;18.70;99.90;;;;;;5052199;28;20264;-57
2022/04/29 11:50:38;;;;;;;15.20;8.93;;;18.40;99.90;;;;;;5069763;28;20735;-58
2022/04/29 11:53:09;;;;;;;16.13;8.60;;;18.60;99.90;;;;;;5068305;28;20213;-56
2022/04/29 11:55:37;;;;;;;14.52;8.70;;;19.40;99.90;;;;;;5065403;28;21575;-57
2022/04/29 11:58:04;;;;;;;13.43;8.60;;;19.10;99.90;;;;;;5068846;28;20297;-57
2022/04/29 12:00:34;;;;;;;15.75;9.38;;;18.50;99.90;;;;;;5067919;28;20562;-57
2022/04/29 12:03:04;;;;;;;14.35;8.77;;;18.00;99.90;;;;;;5068562;28;20199;-57
2022/04/29 12:05:34;;;;;;;13.35;8.52;;;17.40;99.90;;;;;;5068489;28;20211;-57
2022/04/29 12:08:09;;;;;;;16.65;8.77;;;17.70;99.90;;;;;;5068141;28;20426;-57
2022/04/29 12:10:58;;;;;;;16.45;9.20;;;17.70;99.90;;;;;;5067170;28;20217;-57
2022/04/29 12:13:25;;;;;;;14.00;8.73;;;18.00;99.90;;;;;;5047680;28;20890;-58
2022/04/29 12:15:56;;;;;;;16.60;8.77;;;17.90;99.90;;;;;;5037515;28;20201;-57
2022/04/29 12:18:44;;;;;;;13.02;8.75;;;18.50;99.90;;;;;;5062212;28;20674;-57
2022/04/29 12:21:19;;;;;;;13.70;8.77;;;19.10;99.90;;;;;;5060246;28;20270;-57
2022/04/29 12:23:46;;;;;;;14.52;8.63;;;19.40;99.90;;;;;;5060495;28;21563;-57
2022/04/29 12:26:13;;;;;;;13.65;8.20;;;19.90;99.90;;;;;;5060366;28;20187;-57
2022/04/29 12:28:41;;;;;;;13.27;8.57;;;20.40;99.90;;;;;;5057857;28;20725;-57
2022/04/29 12:37:10;;;;;;;14.57;8.02;;;18.70;99.90;;;;;;5057351;28;20212;-57
2022/04/29 12:39:43;;;;;;;12.38;7.70;;;19.60;99.90;;;;;;5039200;28;20211;-57
2022/04/29 12:42:13;;;;;;;9.30;7.55;;;20.40;99.90;;;;;;5043275;28;20270;-57
2022/04/29 12:45:14;;;;;;;15.85;8.38;;;19.70;99.90;;;;;;5045037;28;20663;-57
2022/04/29 12:47:55;;;;;;;11.93;8.13;;;18.10;99.90;;;;;;5057636;28;20199;-57
2022/04/29 12:50:28;;;;;;;12.82;7.38;;;17.50;99.90;;;;;;5043914;28;20251;-57
2022/04/29 12:53:05;;;;;;;13.40;7.07;;;18.20;99.90;;;;;;5041330;28;20195;-57
2022/04/29 12:55:32;;;;;;;13.93;8.20;;;18.40;99.90;;;;;;5042528;28;21520;-57
2022/04/29 12:58:14;;;;;;;22.17;8.50;;;18.40;99.90;;;;;;5043853;28;20207;-57
2022/04/29 13:00:54;;;;;;;10.13;6.88;;;18.70;99.90;;;;;;5046520;28;20204;-57
2022/04/29 13:03:28;;;;;;;15.35;8.18;;;19.50;99.90;;;;;;5043446;28;20279;-57
2022/04/29 13:06:08;;;;;;;11.65;7.03;;;19.00;99.90;;;;;;5047202;28;20564;-57
2022/04/29 13:08:39;;;;;;;14.35;7.07;;;19.20;99.90;;;;;;5043335;28;20200;-56
2022/04/29 13:11:06;;;;;;;15.20;8.77;;;18.70;99.90;;;;;;5045133;28;20227;-56
2022/04/29 13:13:33;;;;;;;15.52;8.00;;;18.50;99.90;;;;;;5042253;28;20203;-57
2022/04/29 13:16:05;;;;;;;18.77;12.48;;;18.80;99.90;;;;;;5021867;28;20298;-57
2022/04/29 13:18:34;;;;;;;13.07;7.95;;;19.20;99.90;;;;;;5036215;28;20212;-57
2022/04/29 13:21:09;;;;;;;12.88;7.15;;;19.80;99.90;;;;;;5038160;28;20184;-57
2022/04/29 13:23:40;;;;;;;13.35;6.97;;;19.50;99.90;;;;;;5024713;28;20192;-57
2022/04/29 13:26:13;;;;;;;8.27;6.47;;;19.80;99.90;;;;;;5060091;28;20777;-57
2022/04/29 13:28:42;;;;;;;11.05;7.68;;;20.10;99.90;;;;;;5045601;28;20227;-58
2022/04/29 13:31:10;;;;;;;13.88;6.50;;;20.60;99.90;;;;;;5049344;28;20292;-57
2022/04/29 13:33:37;;;;;;;11.07;6.93;;;20.20;99.90;;;;;;5062718;28;20214;-56
2022/04/29 13:36:07;;;;;;;10.60;6.30;;;20.00;99.90;;;;;;5051093;28;20252;-58
2022/04/29 13:38:35;;;;;;;12.02;6.82;;;19.80;99.90;;;;;;5065648;28;20630;-57
2022/04/29 13:41:04;;;;;;;9.98;7.07;;;18.80;99.90;;;;;;5041028;28;20644;-57
2022/04/29 13:43:34;;;;;;;11.50;7.22;;;18.40;99.90;;;;;;5063161;28;20244;-57
2022/04/29 13:46:21;;;;;;;10.45;6.60;;;18.20;99.90;;;;;;5060074;28;20175;-57
2022/04/29 13:48:48;;;;;;;11.77;6.68;;;18.30;99.90;;;;;;5064222;28;20209;-57